createdAt,value
2018-07-28T00:01:43.382Z,7.23
2018-07-28T00:04:13.302Z,7.70
2018-07-28T00:06:44.115Z,7.40
2018-07-28T00:09:16.586Z,6.83
2018-07-28T00:11:45.474Z,7.90
2018-07-28T00:14:15.342Z,6.53
2018-07-28T00:16:44.098Z,7.37
2018-07-28T00:19:13.922Z,8.07
2018-07-28T00:21:42.826Z,6.87
2018-07-28T00:24:13.774Z,6.97
2018-07-28T00:26:42.721Z,6.77
2018-07-28T00:29:12.530Z,7.03
2018-07-28T00:31:41.470Z,7.20
2018-07-28T00:34:10.370Z,7.87
2018-07-28T00:36:50.154Z,7.60
2018-07-28T00:39:19.022Z,7.63
2018-07-28T00:41:51.442Z,7.03
2018-07-28T00:44:22.250Z,7.30
2018-07-28T00:46:51.142Z,7.23
2018-07-28T00:49:20.002Z,7.70
2018-07-28T00:51:48.817Z,7.20
2018-07-28T00:54:24.090Z,8.00
2018-07-28T00:56:53.898Z,7.13
2018-07-28T00:59:22.874Z,7.00
2018-07-28T01:01:51.742Z,8.17
2018-07-28T01:04:21.554Z,8.53
2018-07-28T01:06:52.207Z,8.10
2018-07-28T01:09:20.963Z,7.40
2018-07-28T01:11:49.902Z,7.93
2018-07-28T01:14:19.638Z,7.37
2018-07-28T01:16:54.218Z,8.00
2018-07-28T01:19:26.262Z,8.40
2018-07-28T01:21:55.126Z,9.00
2018-07-28T01:24:24.932Z,8.93
2018-07-28T01:26:53.818Z,7.57
2018-07-28T01:29:22.750Z,8.40
2018-07-28T01:31:53.674Z,8.40
2018-07-28T01:34:23.562Z,7.67
2018-07-28T01:36:53.414Z,8.33
2018-07-28T01:39:24.074Z,8.80
2018-07-28T01:41:52.850Z,7.63
2018-07-28T01:44:29.427Z,8.37
2018-07-28T01:47:06.279Z,8.63
2018-07-28T01:49:35.367Z,8.27
2018-07-28T01:52:06.575Z,8.27
2018-07-28T01:54:39.410Z,9.93
2018-07-28T01:57:09.259Z,8.53
2018-07-28T01:59:39.150Z,8.67
2018-07-28T02:02:08.003Z,8.40
2018-07-28T02:04:37.833Z,7.93
2018-07-28T02:07:06.699Z,10.60
2018-07-28T02:09:38.763Z,8.40
2018-07-28T02:12:07.926Z,9.20
2018-07-28T02:14:36.878Z,8.60
2018-07-28T02:17:05.834Z,9.90
2018-07-28T02:19:36.630Z,8.30
2018-07-28T02:22:05.502Z,10.20
2018-07-28T02:24:36.330Z,9.83
2018-07-28T02:27:06.270Z,8.80
2018-07-28T02:29:35.206Z,9.30
2018-07-28T02:32:04.074Z,9.70
2018-07-28T02:34:38.691Z,10.00
2018-07-28T02:37:08.599Z,10.40
2018-07-28T02:39:38.622Z,9.97
2018-07-28T02:42:10.096Z,10.60
2018-07-28T02:44:38.947Z,10.97
2018-07-28T02:47:07.856Z,10.83
2018-07-28T02:49:38.682Z,10.67
2018-07-28T02:52:09.483Z,11.50
2018-07-28T02:54:49.743Z,11.10
2018-07-28T02:57:18.270Z,10.30
2018-07-28T02:59:48.015Z,10.50
2018-07-28T03:02:20.503Z,10.73
2018-07-28T03:04:50.379Z,9.90
2018-07-28T03:07:23.443Z,11.13
2018-07-28T03:09:55.383Z,11.40
2018-07-28T03:12:24.504Z,10.20
2018-07-28T03:14:54.435Z,10.27
2018-07-28T03:17:23.310Z,11.10
2018-07-28T03:19:52.239Z,10.10
2018-07-28T03:22:21.070Z,10.07
2018-07-28T03:24:50.147Z,10.70
2018-07-28T03:27:19.031Z,10.20
2018-07-28T03:29:47.942Z,10.30
2018-07-28T03:32:17.802Z,9.50
2018-07-28T03:34:51.243Z,10.57
2018-07-28T03:37:23.430Z,9.90
2018-07-28T03:39:52.266Z,10.67
2018-07-28T03:42:21.094Z,8.97
2018-07-28T03:44:49.990Z,9.93
2018-07-28T03:47:29.282Z,10.00
2018-07-28T03:50:00.507Z,9.43
2018-07-28T03:52:29.343Z,10.00
2018-07-28T03:54:59.135Z,9.97
2018-07-28T03:57:32.567Z,8.83
2018-07-28T04:00:01.415Z,7.83
2018-07-28T04:02:42.035Z,8.47
2018-07-28T04:05:17.895Z,8.70
2018-07-28T04:08:01.239Z,8.60
2018-07-28T04:10:31.078Z,9.00
2018-07-28T04:12:59.914Z,9.10
2018-07-28T04:15:33.494Z,8.53
2018-07-28T04:18:02.402Z,8.83
2018-07-28T04:20:31.286Z,9.20
2018-07-28T04:23:00.131Z,9.53
2018-07-28T04:25:29.834Z,9.00
2018-07-28T04:28:08.304Z,9.17
2018-07-28T04:30:47.506Z,8.57
2018-07-28T04:33:16.282Z,8.80
2018-07-28T04:36:01.494Z,8.60
2018-07-28T04:38:30.374Z,8.47
2018-07-28T04:40:59.215Z,8.80
2018-07-28T04:43:33.518Z,8.37
2018-07-28T04:46:08.202Z,9.10
2018-07-28T04:51:43.257Z,8.73
2018-07-28T04:54:19.621Z,9.30
2018-07-28T04:56:56.798Z,9.00
2018-07-28T04:59:25.689Z,8.50
2018-07-28T05:01:56.478Z,8.20
2018-07-28T05:04:33.209Z,8.83
2018-07-28T05:07:05.502Z,9.13
2018-07-28T05:09:34.362Z,9.50
2018-07-28T05:12:17.398Z,9.70
2018-07-28T05:14:53.833Z,9.37
2018-07-28T05:17:36.198Z,9.70
2018-07-28T05:20:07.082Z,10.30
2018-07-28T05:22:35.978Z,10.67
2018-07-28T05:25:08.109Z,11.40
2018-07-28T05:27:57.313Z,9.80
2018-07-28T05:30:26.188Z,9.23
2018-07-28T05:32:55.986Z,9.73
2018-07-28T05:35:29.974Z,9.40
2018-07-28T05:37:58.765Z,9.70
2018-07-28T05:40:38.117Z,9.63
2018-07-28T05:43:07.958Z,9.47
2018-07-28T05:45:36.830Z,9.10
2018-07-28T05:48:09.014Z,9.20
2018-07-28T05:50:38.910Z,8.50
2018-07-28T05:53:08.758Z,8.40
2018-07-28T05:55:38.511Z,8.90
2018-07-28T05:58:07.291Z,8.20
2018-07-28T06:00:40.510Z,9.77
2018-07-28T06:03:09.330Z,7.60
2018-07-28T06:05:38.186Z,7.73
2018-07-28T06:08:07.992Z,7.47
2018-07-28T06:10:36.759Z,8.40
2018-07-28T06:13:07.610Z,7.80
2018-07-28T06:15:44.514Z,7.30
2018-07-28T06:18:17.917Z,7.20
2018-07-28T06:20:48.722Z,7.37
2018-07-28T06:23:23.697Z,7.00
2018-07-28T06:25:52.838Z,6.87
2018-07-28T06:28:21.681Z,6.80
2018-07-28T06:30:51.463Z,6.63
2018-07-28T06:33:21.314Z,7.20
2018-07-28T06:35:50.267Z,7.00
2018-07-28T06:38:25.670Z,6.70
2018-07-28T06:41:07.958Z,7.63
2018-07-28T06:43:37.113Z,7.00
2018-07-28T06:46:07.966Z,6.80
2018-07-28T06:48:44.222Z,6.40
2018-07-28T06:51:35.863Z,5.33
2018-07-28T06:54:07.611Z,6.43
2018-07-28T06:56:42.413Z,5.50
2018-07-28T06:59:11.210Z,5.40
2018-07-28T07:01:40.010Z,6.00
2018-07-28T07:04:14.498Z,5.80
2018-07-28T07:06:44.326Z,6.17
2018-07-28T07:09:16.584Z,7.00
2018-07-28T07:11:45.378Z,5.70
2018-07-28T07:14:23.797Z,5.90
2018-07-28T07:16:58.166Z,5.03
2018-07-28T07:19:36.714Z,5.83
2018-07-28T07:22:14.769Z,5.87
2018-07-28T07:24:55.938Z,6.20
2018-07-28T07:27:30.851Z,6.00
2018-07-28T07:30:08.572Z,5.50
2018-07-28T07:32:37.429Z,6.03
2018-07-28T07:35:08.165Z,6.13
2018-07-28T07:37:57.053Z,5.60
2018-07-28T07:40:31.693Z,6.73
2018-07-28T07:43:07.261Z,5.97
2018-07-28T07:45:38.105Z,5.30
2018-07-28T07:48:07.818Z,6.20
2018-07-28T07:50:55.390Z,6.40
2018-07-28T07:56:19.197Z,5.90
2018-07-28T07:58:54.429Z,6.27
2018-07-28T08:01:23.285Z,5.50
2018-07-28T08:03:57.953Z,6.37
2018-07-28T08:06:30.387Z,6.33
2018-07-28T08:08:59.165Z,6.03
2018-07-28T08:11:27.965Z,5.70
2018-07-28T08:13:57.581Z,6.03
2018-07-28T08:16:26.422Z,6.10
2018-07-28T08:19:00.030Z,6.10
2018-07-28T08:21:34.909Z,6.70
2018-07-28T08:24:09.517Z,5.50
2018-07-28T08:26:52.126Z,5.47
2018-07-28T08:29:24.893Z,5.50
2018-07-28T08:31:59.365Z,5.90
2018-07-28T08:34:28.241Z,5.43
2018-07-28T08:36:57.102Z,5.70
2018-07-28T08:39:30.419Z,5.60
2018-07-28T08:41:59.221Z,5.73
2018-07-28T08:44:33.505Z,5.93
2018-07-28T08:47:07.414Z,5.30
2018-07-28T08:52:31.434Z,5.67
2018-07-28T08:55:00.294Z,5.60
2018-07-28T08:57:50.106Z,4.67
2018-07-28T09:00:23.766Z,5.20
2018-07-28T09:02:52.526Z,5.30
2018-07-28T09:05:21.381Z,5.80
2018-07-28T09:07:50.509Z,5.70
2018-07-28T09:10:19.226Z,5.60
2018-07-28T09:12:47.970Z,6.13
2018-07-28T09:15:20.274Z,5.70
2018-07-28T09:18:02.165Z,5.27
2018-07-28T09:20:41.282Z,5.37
2018-07-28T09:23:23.964Z,5.00
2018-07-28T09:26:00.705Z,5.23
2018-07-28T09:28:34.105Z,4.80
2018-07-28T09:31:07.501Z,5.20
2018-07-28T09:33:37.218Z,4.50
2018-07-28T09:36:06.966Z,5.20
2018-07-28T09:38:36.057Z,4.73
2018-07-28T09:41:06.794Z,4.77
2018-07-28T09:43:46.334Z,5.57
2018-07-28T09:46:27.751Z,4.87
2018-07-28T09:49:00.789Z,5.03
2018-07-28T09:51:29.701Z,5.40
2018-07-28T09:53:58.762Z,4.57
2018-07-28T09:56:28.597Z,4.80
2018-07-28T09:58:57.345Z,5.53
2018-07-28T10:01:26.160Z,4.30
2018-07-28T10:03:56.962Z,4.87
2018-07-28T10:06:26.693Z,5.17
2018-07-28T10:09:01.353Z,5.17
2018-07-28T10:11:40.977Z,5.40
2018-07-28T10:14:14.117Z,5.40
2018-07-28T10:16:51.209Z,5.23
2018-07-28T10:19:27.646Z,5.10
2018-07-28T10:22:09.573Z,5.10
2018-07-28T10:24:43.782Z,4.80
2018-07-28T10:27:19.901Z,4.97
2018-07-28T10:29:48.654Z,5.10
2018-07-28T10:32:19.181Z,4.67
2018-07-28T10:34:47.863Z,4.50
2018-07-28T10:37:20.437Z,5.00
2018-07-28T10:40:05.242Z,4.50
2018-07-28T10:42:36.489Z,4.57
2018-07-28T10:45:07.545Z,5.07
2018-07-28T10:47:48.314Z,5.50
2018-07-28T10:50:17.350Z,4.20
2018-07-28T10:52:52.801Z,4.87
2018-07-28T10:55:26.184Z,4.40
2018-07-28T10:57:56.088Z,3.90
2018-07-28T11:00:32.715Z,4.73
2018-07-28T11:03:10.001Z,5.00
2018-07-28T11:05:42.081Z,4.30
2018-07-28T11:08:12.933Z,4.43
2018-07-28T11:10:41.749Z,5.70
2018-07-28T11:13:12.617Z,4.90
2018-07-28T11:15:43.433Z,5.07
2018-07-28T11:18:12.201Z,5.03
2018-07-28T11:20:41.073Z,5.33
2018-07-28T11:23:11.977Z,5.07
2018-07-28T11:25:45.582Z,5.83
2018-07-28T11:28:15.373Z,5.10
2018-07-28T11:30:44.229Z,5.13
2018-07-28T11:33:28.253Z,4.70
2018-07-28T11:36:09.333Z,5.17
2018-07-28T11:38:49.649Z,4.70
2018-07-28T11:41:31.841Z,4.20
2018-07-28T11:44:17.469Z,4.20
2018-07-28T11:46:49.967Z,3.70
2018-07-28T11:49:18.709Z,3.20
2018-07-28T11:51:47.566Z,3.70
2018-07-28T11:54:25.569Z,3.63
2018-07-28T11:56:54.309Z,3.33
2018-07-28T11:59:23.081Z,4.50
2018-07-28T12:01:59.397Z,4.10
2018-07-28T12:04:31.965Z,3.27
2018-07-28T12:07:01.851Z,3.70
2018-07-28T12:09:35.609Z,2.97
2018-07-28T12:12:04.485Z,3.10
2018-07-28T12:14:36.665Z,2.70
2018-07-28T12:17:06.821Z,3.40
2018-07-28T12:19:35.604Z,4.30
2018-07-28T12:22:06.976Z,4.40
2018-07-28T12:24:36.749Z,4.33
2018-07-28T12:27:06.509Z,4.60
2018-07-28T12:29:39.172Z,3.90
2018-07-28T12:32:08.095Z,4.43
2018-07-28T12:34:36.893Z,4.40
2018-07-28T12:37:05.486Z,3.70
2018-07-28T12:39:34.148Z,4.47
2018-07-28T12:42:06.321Z,3.60
2018-07-28T12:44:42.861Z,4.10
2018-07-28T12:47:19.785Z,4.17
2018-07-28T12:49:49.572Z,4.30
2018-07-28T12:52:24.348Z,3.07
2018-07-28T12:54:58.391Z,4.00
2018-07-28T12:57:34.396Z,4.43
2018-07-28T13:00:15.733Z,4.30
2018-07-28T13:02:44.524Z,4.33
2018-07-28T13:05:13.309Z,4.93
2018-07-28T13:07:45.501Z,5.13
2018-07-28T13:10:14.346Z,5.40
2018-07-28T13:12:46.333Z,5.60
2018-07-28T13:15:25.576Z,6.07
2018-07-28T13:18:02.479Z,5.40
2018-07-28T13:20:34.813Z,5.97
2018-07-28T13:23:06.833Z,5.50
2018-07-28T13:25:40.480Z,5.20
2018-07-28T13:28:14.465Z,5.40
2018-07-28T13:30:44.208Z,6.77
2018-07-28T13:33:19.300Z,4.90
2018-07-28T13:35:53.336Z,5.40
2018-07-28T13:38:26.144Z,5.33
2018-07-28T13:41:00.800Z,5.07
2018-07-28T13:43:30.593Z,4.00
2018-07-28T13:46:00.416Z,4.13
2018-07-28T13:48:32.545Z,4.07
2018-07-28T13:51:05.437Z,4.37
2018-07-28T13:53:40.689Z,4.33
2018-07-28T13:56:10.516Z,4.20
2018-07-28T13:58:56.104Z,4.10
2018-07-28T14:01:24.940Z,3.80
2018-07-28T14:03:58.045Z,3.73
2018-07-28T14:06:38.814Z,3.67
2018-07-28T14:09:12.709Z,3.17
2018-07-28T14:11:41.537Z,3.00
2018-07-28T14:14:13.083Z,3.50
2018-07-28T14:16:41.853Z,3.80
2018-07-28T14:19:17.616Z,3.80
2018-07-28T14:21:48.140Z,3.20
2018-07-28T14:24:30.484Z,3.00
2018-07-28T14:27:04.847Z,3.27
2018-07-28T14:29:34.649Z,3.60
2018-07-28T14:32:05.381Z,3.07
2018-07-28T14:34:40.673Z,3.40
2018-07-28T14:37:09.567Z,3.10
2018-07-28T14:39:50.320Z,3.70
2018-07-28T14:42:21.084Z,3.80
2018-07-28T14:44:50.845Z,3.73
2018-07-28T14:47:19.665Z,4.03
2018-07-28T14:49:49.145Z,3.00
2018-07-28T14:52:26.133Z,2.40
2018-07-28T14:55:00.532Z,2.90
2018-07-28T14:57:31.967Z,2.60
2018-07-28T15:00:00.725Z,2.80
2018-07-28T15:02:30.517Z,2.60
2018-07-28T15:05:06.041Z,2.70
2018-07-28T15:07:34.729Z,2.80
2018-07-28T15:10:05.590Z,2.90
2018-07-28T15:12:38.857Z,3.00
2018-07-28T15:15:07.669Z,2.80
2018-07-28T15:17:40.633Z,3.10
2018-07-28T15:20:21.009Z,3.30
2018-07-28T15:22:57.085Z,3.27
2018-07-28T15:25:25.928Z,3.50
2018-07-28T15:27:54.884Z,3.20
2018-07-28T15:30:28.686Z,3.97
2018-07-28T15:33:04.709Z,3.80
2018-07-28T15:35:41.585Z,3.30
2018-07-28T15:38:21.301Z,3.10
2018-07-28T15:40:50.140Z,4.37
2018-07-28T15:43:19.020Z,3.63
2018-07-28T15:45:47.896Z,3.73
2018-07-28T15:48:16.841Z,3.53
2018-07-28T15:50:45.969Z,3.60
2018-07-28T15:53:18.625Z,3.40
2018-07-28T15:55:48.504Z,3.70
2018-07-28T15:58:18.316Z,3.37
2018-07-28T16:00:49.156Z,3.30
2018-07-28T16:03:19.168Z,4.07
2018-07-28T16:05:51.589Z,3.53
2018-07-28T16:08:25.508Z,3.53
2018-07-28T16:10:58.620Z,3.07
2018-07-28T16:13:27.604Z,3.30
2018-07-28T16:15:57.648Z,3.23
2018-07-28T16:18:27.676Z,3.27
2018-07-28T16:21:16.602Z,3.57
2018-07-28T16:23:48.968Z,3.97
2018-07-28T16:26:21.387Z,3.20
2018-07-28T16:28:55.404Z,3.33
2018-07-28T16:31:24.344Z,3.10
2018-07-28T16:33:57.360Z,4.10
2018-07-28T16:36:29.960Z,3.70
2018-07-28T16:39:02.472Z,3.47
2018-07-28T16:41:32.224Z,4.17
2018-07-28T16:44:02.084Z,3.50
2018-07-28T16:46:31.060Z,3.83
2018-07-28T16:49:00.752Z,4.67
2018-07-28T16:51:31.460Z,3.93
2018-07-28T16:54:01.332Z,4.53
2018-07-28T16:56:46.552Z,4.90
2018-07-28T16:59:20.628Z,4.87
2018-07-28T17:01:51.456Z,4.23
2018-07-28T17:04:23.380Z,4.43
2018-07-28T17:07:02.825Z,4.60
2018-07-28T17:09:31.824Z,4.60
2018-07-28T17:12:01.929Z,4.87
2018-07-28T17:14:31.807Z,4.87
2018-07-28T17:17:04.324Z,4.87
2018-07-28T17:19:35.464Z,4.40
2018-07-28T17:22:05.652Z,4.97
2018-07-28T17:24:34.794Z,4.50
2018-07-28T17:27:04.792Z,4.43
2018-07-28T17:29:33.757Z,4.97
2018-07-28T17:32:02.711Z,4.80
2018-07-28T17:34:36.264Z,5.30
2018-07-28T17:37:05.416Z,4.90
2018-07-28T17:39:36.584Z,4.83
2018-07-28T17:42:09.792Z,5.20
2018-07-28T17:44:38.833Z,5.40
2018-07-28T17:47:09.096Z,4.73
2018-07-28T17:49:39.383Z,5.17
2018-07-28T17:52:08.568Z,4.63
2018-07-28T17:54:47.100Z,4.63
2018-07-28T17:57:17.308Z,5.37
2018-07-28T17:59:49.207Z,5.30
2018-07-28T18:02:18.436Z,5.20
2018-07-28T18:04:48.539Z,5.57
2018-07-28T18:07:17.828Z,4.77
2018-07-28T18:09:47.407Z,4.87
2018-07-28T18:12:16.711Z,5.77
2018-07-28T18:14:47.655Z,4.70
2018-07-28T18:17:18.716Z,5.60
2018-07-28T18:19:49.762Z,5.40
2018-07-28T18:22:19.564Z,5.30
2018-07-28T18:24:52.872Z,6.97
2018-07-28T18:27:22.224Z,5.60
2018-07-28T18:29:51.908Z,5.03
2018-07-28T18:32:20.896Z,5.83
2018-07-28T18:34:52.312Z,5.67
2018-07-28T18:37:28.228Z,5.30
2018-07-28T18:39:57.489Z,5.70
2018-07-28T18:42:32.876Z,5.57
2018-07-28T18:45:03.640Z,5.27
2018-07-28T18:47:33.512Z,6.40
2018-07-28T18:50:02.489Z,5.70
2018-07-28T18:52:35.588Z,5.80
2018-07-28T18:55:06.561Z,6.10
2018-07-28T18:57:36.048Z,6.60
2018-07-28T19:00:07.279Z,6.60
2018-07-28T19:02:37.560Z,5.73
2018-07-28T19:05:07.387Z,5.50
2018-07-28T19:07:37.490Z,6.20
2018-07-28T19:10:08.172Z,5.70
2018-07-28T19:12:44.759Z,6.57
2018-07-28T19:15:14.107Z,5.53
2018-07-28T19:17:55.759Z,6.10
2018-07-28T19:20:26.251Z,7.50
2018-07-28T19:23:04.452Z,6.37
2018-07-28T19:25:41.220Z,5.57
2018-07-28T19:28:18.261Z,6.33
2018-07-28T19:30:47.688Z,6.60
2018-07-28T19:33:21.420Z,6.43
2018-07-28T19:35:56.100Z,6.23
2018-07-28T19:38:29.959Z,6.20
2018-07-28T19:41:04.008Z,5.57
2018-07-28T19:43:33.064Z,6.43
2018-07-28T19:46:04.553Z,6.40
2018-07-28T19:48:36.188Z,6.40
2018-07-28T19:51:09.332Z,7.10
2018-07-28T19:53:42.911Z,6.80
2018-07-28T19:56:13.225Z,6.80
2018-07-28T19:58:42.724Z,6.60
2018-07-28T20:01:12.420Z,7.17
2018-07-28T20:03:42.672Z,6.20
2018-07-28T20:06:18.328Z,7.20
2018-07-28T20:08:49.204Z,6.53
2018-07-28T20:11:20.444Z,7.40
2018-07-28T20:13:50.565Z,6.37
2018-07-28T20:16:19.766Z,7.60
2018-07-28T20:18:48.832Z,8.07
2018-07-28T20:21:30.248Z,7.03
2018-07-28T20:23:59.380Z,7.30
2018-07-28T20:26:28.776Z,7.23
2018-07-28T20:28:59.176Z,7.43
2018-07-28T20:31:32.096Z,7.80
2018-07-28T20:34:03.264Z,6.87
2018-07-28T20:36:33.296Z,7.23
2018-07-28T20:39:03.724Z,7.60
2018-07-28T20:41:33.926Z,7.40
2018-07-28T20:44:03.116Z,6.37
2018-07-28T20:46:33.067Z,7.03
2018-07-28T20:49:05.414Z,7.30
2018-07-28T20:51:39.864Z,7.00
2018-07-28T20:54:14.268Z,7.40
2018-07-28T20:56:44.136Z,7.80
2018-07-28T20:59:13.123Z,6.90
2018-07-28T21:01:45.365Z,8.07
2018-07-28T21:04:19.000Z,7.30
2018-07-28T21:06:48.096Z,7.07
2018-07-28T21:09:18.908Z,6.80
2018-07-28T21:11:49.195Z,7.37
2018-07-28T21:14:18.190Z,7.70
2018-07-28T21:16:50.908Z,7.00
2018-07-28T21:19:22.860Z,7.07
2018-07-28T21:21:54.121Z,7.23
2018-07-28T21:24:25.256Z,7.70
2018-07-28T21:26:55.476Z,7.83
2018-07-28T21:29:24.632Z,7.23
2018-07-28T21:31:54.732Z,7.70
2018-07-28T21:34:25.880Z,8.03
2018-07-28T21:36:56.704Z,6.93
2018-07-28T21:39:26.604Z,7.33
2018-07-28T21:42:01.552Z,7.20
2018-07-28T21:44:32.188Z,7.40
2018-07-28T21:47:01.232Z,7.30
2018-07-28T21:49:30.312Z,7.67
2018-07-28T21:51:59.480Z,7.10
2018-07-28T21:54:30.535Z,8.00
2018-07-28T21:57:04.468Z,7.20
2018-07-28T21:59:33.714Z,6.73
2018-07-28T22:02:03.676Z,7.10
2018-07-28T22:04:35.687Z,6.70
2018-07-28T22:07:05.044Z,8.27
2018-07-28T22:09:40.828Z,7.50
2018-07-28T22:12:10.839Z,7.60
2018-07-28T22:14:40.780Z,7.10
2018-07-28T22:17:10.704Z,7.53
2018-07-28T22:19:41.636Z,7.77
2018-07-28T22:22:10.656Z,7.80
2018-07-28T22:24:40.919Z,8.03
2018-07-28T22:27:10.903Z,6.77
2018-07-28T22:29:39.952Z,7.10
2018-07-28T22:32:08.963Z,7.40
2018-07-28T22:34:38.155Z,7.60
2018-07-28T22:37:09.379Z,7.77
2018-07-28T22:39:39.651Z,7.93
2018-07-28T22:42:09.127Z,8.17
2018-07-28T22:44:39.342Z,7.50
2018-07-28T22:47:09.427Z,7.53
2018-07-28T22:49:43.523Z,8.30
2018-07-28T22:52:16.675Z,7.47
2018-07-28T22:54:46.916Z,7.93
2018-07-28T22:57:22.915Z,8.73
2018-07-28T22:59:52.103Z,8.10
2018-07-28T23:02:21.607Z,7.70
2018-07-28T23:04:51.871Z,8.50
2018-07-28T23:07:23.371Z,7.80
2018-07-28T23:09:53.847Z,7.20
2018-07-28T23:12:25.303Z,8.67
2018-07-28T23:14:59.619Z,7.53
2018-07-28T23:17:28.779Z,6.70
2018-07-28T23:19:58.031Z,8.07
2018-07-28T23:22:28.619Z,7.73
2018-07-28T23:24:57.999Z,7.83
2018-07-28T23:27:28.903Z,7.50
2018-07-28T23:30:00.116Z,8.23
2018-07-28T23:32:33.795Z,7.87
2018-07-28T23:35:02.779Z,8.37
2018-07-28T23:37:32.024Z,8.60
2018-07-28T23:40:01.003Z,8.37
2018-07-28T23:42:30.095Z,7.77
2018-07-28T23:45:01.863Z,7.43
2018-07-28T23:47:31.335Z,7.63
2018-07-28T23:50:04.859Z,7.97
2018-07-28T23:52:34.553Z,7.50
2018-07-28T23:55:04.008Z,7.77
2018-07-28T23:57:34.615Z,7.10
